sensor_id;sensor_type;location;lat;lon;timestamp;P1;durP1;ratioP1;P2;durP2;ratioP2
61458;SDS011;47324;48.760;9.156;2022-07-29T04:02:22;8.38;;;4.30;;
61458;SDS011;47324;48.760;9.156;2022-07-29T04:04:48;5.35;;;3.25;;
61458;SDS011;47324;48.760;9.156;2022-07-29T04:07:15;5.20;;;3.50;;
61458;SDS011;47324;48.760;9.156;2022-07-29T04:09:41;6.57;;;3.42;;
61458;SDS011;47324;48.760;9.156;2022-07-29T04:12:07;5.40;;;3.00;;
61458;SDS011;47324;48.760;9.156;2022-07-29T04:14:35;6.03;;;3.35;;
61458;SDS011;47324;48.760;9.156;2022-07-29T04:17:02;4.88;;;3.17;;
61458;SDS011;47324;48.760;9.156;2022-07-29T04:19:29;5.13;;;3.28;;
61458;SDS011;47324;48.760;9.156;2022-07-29T04:21:55;5.13;;;3.10;;
61458;SDS011;47324;48.760;9.156;2022-07-29T04:24:21;7.93;;;3.33;;
61458;SDS011;47324;48.760;9.156;2022-07-29T04:26:47;6.32;;;3.75;;
61458;SDS011;47324;48.760;9.156;2022-07-29T04:29:14;5.50;;;3.70;;
61458;SDS011;47324;48.760;9.156;2022-07-29T04:31:40;6.30;;;3.58;;
61458;SDS011;47324;48.760;9.156;2022-07-29T04:34:06;4.75;;;3.83;;
61458;SDS011;47324;48.760;9.156;2022-07-29T04:36:32;4.68;;;3.38;;
61458;SDS011;47324;48.760;9.156;2022-07-29T04:38:58;4.80;;;3.35;;
61458;SDS011;47324;48.760;9.156;2022-07-29T04:41:24;5.07;;;3.60;;
61458;SDS011;47324;48.760;9.156;2022-07-29T04:43:50;5.82;;;3.95;;
61458;SDS011;47324;48.760;9.156;2022-07-29T04:46:16;5.57;;;4.05;;
61458;SDS011;47324;48.760;9.156;2022-07-29T04:48:44;6.05;;;3.65;;
61458;SDS011;47324;48.760;9.156;2022-07-29T04:51:11;4.93;;;3.67;;
61458;SDS011;47324;48.760;9.156;2022-07-29T04:53:37;4.60;;;3.00;;
61458;SDS011;47324;48.760;9.156;2022-07-29T04:56:03;5.63;;;3.03;;
61458;SDS011;47324;48.760;9.156;2022-07-29T04:58:29;6.72;;;3.33;;
61458;SDS011;47324;48.760;9.156;2022-07-29T05:00:55;6.18;;;3.20;;
61458;SDS011;47324;48.760;9.156;2022-07-29T05:03:21;4.93;;;3.28;;
61458;SDS011;47324;48.760;9.156;2022-07-29T05:05:47;5.25;;;2.85;;
61458;SDS011;47324;48.760;9.156;2022-07-29T05:08:13;4.25;;;2.70;;
61458;SDS011;47324;48.760;9.156;2022-07-29T05:10:39;3.85;;;2.95;;
61458;SDS011;47324;48.760;9.156;2022-07-29T05:13:05;4.70;;;2.97;;
61458;SDS011;47324;48.760;9.156;2022-07-29T05:15:32;4.45;;;2.85;;
61458;SDS011;47324;48.760;9.156;2022-07-29T05:17:59;4.85;;;2.83;;
61458;SDS011;47324;48.760;9.156;2022-07-29T05:20:25;3.78;;;2.53;;
61458;SDS011;47324;48.760;9.156;2022-07-29T05:22:57;5.28;;;3.03;;
61458;SDS011;47324;48.760;9.156;2022-07-29T05:25:27;4.30;;;2.70;;
61458;SDS011;47324;48.760;9.156;2022-07-29T05:27:53;5.03;;;2.50;;
61458;SDS011;47324;48.760;9.156;2022-07-29T05:30:20;6.25;;;2.60;;
61458;SDS011;47324;48.760;9.156;2022-07-29T05:32:46;4.65;;;3.08;;
61458;SDS011;47324;48.760;9.156;2022-07-29T05:35:12;4.85;;;2.53;;
61458;SDS011;47324;48.760;9.156;2022-07-29T05:37:39;3.80;;;2.40;;
61458;SDS011;47324;48.760;9.156;2022-07-29T05:40:05;3.80;;;2.03;;
61458;SDS011;47324;48.760;9.156;2022-07-29T05:42:31;4.10;;;2.38;;
61458;SDS011;47324;48.760;9.156;2022-07-29T05:44:57;4.53;;;2.88;;
61458;SDS011;47324;48.760;9.156;2022-07-29T05:47:24;4.45;;;2.42;;
61458;SDS011;47324;48.760;9.156;2022-07-29T05:49:50;4.95;;;2.83;;
61458;SDS011;47324;48.760;9.156;2022-07-29T05:52:16;3.30;;;2.08;;
61458;SDS011;47324;48.760;9.156;2022-07-29T05:54:42;5.22;;;2.45;;
61458;SDS011;47324;48.760;9.156;2022-07-29T05:57:14;3.42;;;2.08;;
61458;SDS011;47324;48.760;9.156;2022-07-29T05:59:47;3.97;;;2.17;;
61458;SDS011;47324;48.760;9.156;2022-07-29T06:02:14;5.30;;;2.55;;
61458;SDS011;47324;48.760;9.156;2022-07-29T06:04:40;3.80;;;1.67;;
61458;SDS011;47324;48.760;9.156;2022-07-29T06:07:06;5.78;;;2.30;;
61458;SDS011;47324;48.760;9.156;2022-07-29T06:09:32;4.80;;;2.13;;
61458;SDS011;47324;48.760;9.156;2022-07-29T06:11:59;3.67;;;2.25;;
61458;SDS011;47324;48.760;9.156;2022-07-29T06:14:25;5.70;;;2.42;;
61458;SDS011;47324;48.760;9.156;2022-07-29T06:16:54;4.28;;;2.50;;
61458;SDS011;47324;48.760;9.156;2022-07-29T06:19:20;3.90;;;2.53;;
61458;SDS011;47324;48.760;9.156;2022-07-29T06:21:46;3.42;;;2.28;;
61458;SDS011;47324;48.760;9.156;2022-07-29T06:24:12;3.95;;;2.30;;
61458;SDS011;47324;48.760;9.156;2022-07-29T06:26:39;4.65;;;2.72;;
61458;SDS011;47324;48.760;9.156;2022-07-29T06:29:06;4.68;;;2.70;;
61458;SDS011;47324;48.760;9.156;2022-07-29T06:31:32;8.00;;;3.10;;
61458;SDS011;47324;48.760;9.156;2022-07-29T06:33:58;4.82;;;2.75;;
61458;SDS011;47324;48.760;9.156;2022-07-29T06:36:24;5.70;;;2.50;;
61458;SDS011;47324;48.760;9.156;2022-07-29T06:38:50;4.90;;;2.65;;
61458;SDS011;47324;48.760;9.156;2022-07-29T06:41:16;3.67;;;2.25;;
61458;SDS011;47324;48.760;9.156;2022-07-29T06:43:43;6.78;;;2.83;;
61458;SDS011;47324;48.760;9.156;2022-07-29T06:46:10;5.07;;;2.97;;
61458;SDS011;47324;48.760;9.156;2022-07-29T06:48:39;4.22;;;2.50;;
61458;SDS011;47324;48.760;9.156;2022-07-29T06:51:06;4.30;;;2.33;;
61458;SDS011;47324;48.760;9.156;2022-07-29T06:53:32;4.97;;;2.85;;
61458;SDS011;47324;48.760;9.156;2022-07-29T06:55:59;6.30;;;3.00;;
61458;SDS011;47324;48.760;9.156;2022-07-29T06:58:26;4.20;;;2.60;;
61458;SDS011;47324;48.760;9.156;2022-07-29T07:00:53;4.65;;;3.10;;
61458;SDS011;47324;48.760;9.156;2022-07-29T07:03:19;5.70;;;2.70;;
61458;SDS011;47324;48.760;9.156;2022-07-29T07:05:45;5.03;;;2.67;;
61458;SDS011;47324;48.760;9.156;2022-07-29T07:08:11;4.32;;;2.63;;
61458;SDS011;47324;48.760;9.156;2022-07-29T07:10:38;4.68;;;2.72;;
61458;SDS011;47324;48.760;9.156;2022-07-29T07:13:04;4.88;;;2.72;;
61458;SDS011;47324;48.760;9.156;2022-07-29T07:15:31;5.60;;;3.25;;
61458;SDS011;47324;48.760;9.156;2022-07-29T07:17:57;5.50;;;2.88;;
61458;SDS011;47324;48.760;9.156;2022-07-29T07:20:23;4.68;;;2.80;;
61458;SDS011;47324;48.760;9.156;2022-07-29T07:22:50;4.57;;;2.80;;
61458;SDS011;47324;48.760;9.156;2022-07-29T07:25:16;4.22;;;2.80;;
61458;SDS011;47324;48.760;9.156;2022-07-29T07:27:43;6.60;;;3.10;;
61458;SDS011;47324;48.760;9.156;2022-07-29T07:30:09;6.03;;;3.08;;
61458;SDS011;47324;48.760;9.156;2022-07-29T07:32:35;5.40;;;3.13;;
61458;SDS011;47324;48.760;9.156;2022-07-29T07:35:02;4.47;;;2.85;;
61458;SDS011;47324;48.760;9.156;2022-07-29T07:37:30;6.90;;;3.08;;
61458;SDS011;47324;48.760;9.156;2022-07-29T07:39:56;4.05;;;2.47;;
61458;SDS011;47324;48.760;9.156;2022-07-29T07:42:22;5.38;;;3.45;;
61458;SDS011;47324;48.760;9.156;2022-07-29T07:44:48;8.27;;;3.45;;
61458;SDS011;47324;48.760;9.156;2022-07-29T07:47:14;4.75;;;2.65;;
61458;SDS011;47324;48.760;9.156;2022-07-29T07:49:47;4.05;;;2.92;;
61458;SDS011;47324;48.760;9.156;2022-07-29T07:52:15;5.63;;;2.85;;
61458;SDS011;47324;48.760;9.156;2022-07-29T07:54:41;5.72;;;2.97;;
61458;SDS011;47324;48.760;9.156;2022-07-29T07:57:08;5.90;;;3.80;;
61458;SDS011;47324;48.760;9.156;2022-07-29T07:59:34;5.80;;;3.25;;
61458;SDS011;47324;48.760;9.156;2022-07-29T08:02:00;6.53;;;3.80;;
61458;SDS011;47324;48.760;9.156;2022-07-29T08:04:26;4.72;;;3.00;;
61458;SDS011;47324;48.760;9.156;2022-07-29T08:06:52;6.70;;;3.95;;
61458;SDS011;47324;48.760;9.156;2022-07-29T08:09:20;5.45;;;3.63;;
61458;SDS011;47324;48.760;9.156;2022-07-29T08:11:46;4.28;;;3.15;;
61458;SDS011;47324;48.760;9.156;2022-07-29T08:14:12;6.43;;;3.08;;
61458;SDS011;47324;48.760;9.156;2022-07-29T08:16:39;5.07;;;2.95;;
61458;SDS011;47324;48.760;9.156;2022-07-29T08:19:06;4.70;;;3.03;;
61458;SDS011;47324;48.760;9.156;2022-07-29T08:21:32;5.28;;;2.70;;
61458;SDS011;47324;48.760;9.156;2022-07-29T08:23:58;6.20;;;3.58;;
61458;SDS011;47324;48.760;9.156;2022-07-29T08:26:42;6.15;;;2.95;;
61458;SDS011;47324;48.760;9.156;2022-07-29T08:29:08;7.35;;;3.17;;
61458;SDS011;47324;48.760;9.156;2022-07-29T08:31:35;6.18;;;3.25;;
61458;SDS011;47324;48.760;9.156;2022-07-29T08:34:02;5.28;;;3.28;;
61458;SDS011;47324;48.760;9.156;2022-07-29T08:36:29;4.65;;;3.30;;
61458;SDS011;47324;48.760;9.156;2022-07-29T08:38:55;6.82;;;3.35;;
61458;SDS011;47324;48.760;9.156;2022-07-29T08:41:21;7.05;;;4.40;;
61458;SDS011;47324;48.760;9.156;2022-07-29T08:43:48;5.68;;;3.08;;
61458;SDS011;47324;48.760;9.156;2022-07-29T08:46:15;6.30;;;4.00;;
61458;SDS011;47324;48.760;9.156;2022-07-29T08:48:42;5.57;;;3.30;;
61458;SDS011;47324;48.760;9.156;2022-07-29T08:51:08;6.30;;;3.63;;
61458;SDS011;47324;48.760;9.156;2022-07-29T08:53:40;4.97;;;3.60;;
61458;SDS011;47324;48.760;9.156;2022-07-29T08:56:08;5.28;;;3.03;;
61458;SDS011;47324;48.760;9.156;2022-07-29T08:58:37;5.35;;;3.25;;
61458;SDS011;47324;48.760;9.156;2022-07-29T09:01:03;11.80;;;5.25;;
61458;SDS011;47324;48.760;9.156;2022-07-29T09:03:30;8.82;;;4.07;;
61458;SDS011;47324;48.760;9.156;2022-07-29T09:06:00;5.47;;;3.13;;
61458;SDS011;47324;48.760;9.156;2022-07-29T09:08:26;4.85;;;3.00;;
61458;SDS011;47324;48.760;9.156;2022-07-29T09:10:52;4.97;;;3.10;;
61458;SDS011;47324;48.760;9.156;2022-07-29T09:13:19;6.22;;;3.65;;
61458;SDS011;47324;48.760;9.156;2022-07-29T09:15:45;4.65;;;3.50;;
61458;SDS011;47324;48.760;9.156;2022-07-29T09:18:11;6.97;;;3.53;;
61458;SDS011;47324;48.760;9.156;2022-07-29T09:20:37;6.10;;;3.40;;
61458;SDS011;47324;48.760;9.156;2022-07-29T09:23:22;4.70;;;3.28;;
61458;SDS011;47324;48.760;9.156;2022-07-29T09:25:48;4.22;;;2.92;;
61458;SDS011;47324;48.760;9.156;2022-07-29T09:28:15;6.82;;;4.20;;
61458;SDS011;47324;48.760;9.156;2022-07-29T09:30:52;7.05;;;4.05;;
61458;SDS011;47324;48.760;9.156;2022-07-29T09:33:19;5.32;;;3.40;;
61458;SDS011;47324;48.760;9.156;2022-07-29T09:35:57;4.95;;;3.00;;
61458;SDS011;47324;48.760;9.156;2022-07-29T09:38:33;6.65;;;4.18;;
61458;SDS011;47324;48.760;9.156;2022-07-29T09:41:01;5.70;;;3.33;;
61458;SDS011;47324;48.760;9.156;2022-07-29T09:43:28;5.57;;;3.10;;
61458;SDS011;47324;48.760;9.156;2022-07-29T09:45:54;5.35;;;3.60;;
61458;SDS011;47324;48.760;9.156;2022-07-29T09:48:22;8.13;;;4.22;;
61458;SDS011;47324;48.760;9.156;2022-07-29T09:50:49;7.03;;;3.83;;
61458;SDS011;47324;48.760;9.156;2022-07-29T09:53:35;4.78;;;3.65;;
61458;SDS011;47324;48.760;9.156;2022-07-29T09:56:03;7.13;;;3.92;;
61458;SDS011;47324;48.760;9.156;2022-07-29T09:58:29;7.38;;;3.97;;
61458;SDS011;47324;48.760;9.156;2022-07-29T10:00:56;6.60;;;3.45;;
61458;SDS011;47324;48.760;9.156;2022-07-29T10:03:22;6.55;;;3.70;;
61458;SDS011;47324;48.760;9.156;2022-07-29T10:06:07;5.20;;;3.28;;
61458;SDS011;47324;48.760;9.156;2022-07-29T10:08:34;8.48;;;3.92;;
61458;SDS011;47324;48.760;9.156;2022-07-29T10:11:12;6.05;;;3.13;;
61458;SDS011;47324;48.760;9.156;2022-07-29T10:13:42;6.95;;;3.33;;
61458;SDS011;47324;48.760;9.156;2022-07-29T10:16:09;4.30;;;3.22;;
61458;SDS011;47324;48.760;9.156;2022-07-29T10:18:37;5.32;;;3.10;;
61458;SDS011;47324;48.760;9.156;2022-07-29T10:21:04;10.75;;;4.20;;
61458;SDS011;47324;48.760;9.156;2022-07-29T10:23:31;12.40;;;3.50;;
61458;SDS011;47324;48.760;9.156;2022-07-29T10:25:57;7.22;;;3.90;;
61458;SDS011;47324;48.760;9.156;2022-07-29T10:28:23;6.68;;;4.00;;
61458;SDS011;47324;48.760;9.156;2022-07-29T10:30:50;5.40;;;3.33;;
61458;SDS011;47324;48.760;9.156;2022-07-29T10:33:21;5.28;;;3.33;;
61458;SDS011;47324;48.760;9.156;2022-07-29T10:36:17;5.68;;;3.70;;
61458;SDS011;47324;48.760;9.156;2022-07-29T10:39:05;8.07;;;4.55;;
61458;SDS011;47324;48.760;9.156;2022-07-29T10:44:47;8.10;;;3.97;;
61458;SDS011;47324;48.760;9.156;2022-07-29T10:50:05;7.43;;;4.40;;
61458;SDS011;47324;48.760;9.156;2022-07-29T10:52:51;6.30;;;4.43;;
61458;SDS011;47324;48.760;9.156;2022-07-29T10:55:31;9.25;;;4.50;;
61458;SDS011;47324;48.760;9.156;2022-07-29T10:58:12;7.57;;;4.13;;
61458;SDS011;47324;48.760;9.156;2022-07-29T11:00:43;7.68;;;4.65;;
61458;SDS011;47324;48.760;9.156;2022-07-29T11:03:09;6.25;;;4.53;;
61458;SDS011;47324;48.760;9.156;2022-07-29T11:08:30;8.45;;;5.55;;
61458;SDS011;47324;48.760;9.156;2022-07-29T11:16:14;10.95;;;6.60;;
61458;SDS011;47324;48.760;9.156;2022-07-29T11:19:18;11.23;;;6.63;;
61458;SDS011;47324;48.760;9.156;2022-07-29T11:21:42;9.48;;;5.60;;
61458;SDS011;47324;48.760;9.156;2022-07-29T11:24:15;9.27;;;5.40;;
61458;SDS011;47324;48.760;9.156;2022-07-29T11:26:44;13.60;;;6.38;;
61458;SDS011;47324;48.760;9.156;2022-07-29T11:29:16;8.38;;;5.93;;
61458;SDS011;47324;48.760;9.156;2022-07-29T11:31:48;13.65;;;5.90;;
61458;SDS011;47324;48.760;9.156;2022-07-29T11:39:40;9.10;;;5.88;;
61458;SDS011;47324;48.760;9.156;2022-07-29T11:45:00;11.45;;;6.40;;
61458;SDS011;47324;48.760;9.156;2022-07-29T11:47:34;9.13;;;5.93;;
61458;SDS011;47324;48.760;9.156;2022-07-29T11:50:15;9.50;;;6.13;;
61458;SDS011;47324;48.760;9.156;2022-07-29T11:53:11;9.82;;;5.55;;
61458;SDS011;47324;48.760;9.156;2022-07-29T11:55:38;8.10;;;5.63;;
61458;SDS011;47324;48.760;9.156;2022-07-29T11:58:05;7.63;;;5.80;;
61458;SDS011;47324;48.760;9.156;2022-07-29T12:00:32;11.27;;;6.35;;
61458;SDS011;47324;48.760;9.156;2022-07-29T12:03:07;9.38;;;5.07;;
61458;SDS011;47324;48.760;9.156;2022-07-29T12:05:40;10.40;;;4.40;;
61458;SDS011;47324;48.760;9.156;2022-07-29T12:08:11;6.68;;;4.00;;
61458;SDS011;47324;48.760;9.156;2022-07-29T12:10:44;6.72;;;3.53;;
61458;SDS011;47324;48.760;9.156;2022-07-29T12:13:12;7.30;;;3.53;;
61458;SDS011;47324;48.760;9.156;2022-07-29T12:15:39;5.72;;;3.50;;
61458;SDS011;47324;48.760;9.156;2022-07-29T12:18:10;7.25;;;4.28;;
61458;SDS011;47324;48.760;9.156;2022-07-29T12:20:36;8.43;;;5.13;;
61458;SDS011;47324;48.760;9.156;2022-07-29T12:23:06;8.07;;;4.75;;
61458;SDS011;47324;48.760;9.156;2022-07-29T12:25:40;5.80;;;4.10;;
61458;SDS011;47324;48.760;9.156;2022-07-29T12:28:07;8.25;;;4.28;;
61458;SDS011;47324;48.760;9.156;2022-07-29T12:33:16;6.13;;;3.78;;
61458;SDS011;47324;48.760;9.156;2022-07-29T12:35:57;7.00;;;5.65;;
61458;SDS011;47324;48.760;9.156;2022-07-29T12:38:25;6.85;;;4.47;;
61458;SDS011;47324;48.760;9.156;2022-07-29T12:40:51;6.35;;;3.88;;
61458;SDS011;47324;48.760;9.156;2022-07-29T12:43:22;6.72;;;4.10;;
61458;SDS011;47324;48.760;9.156;2022-07-29T12:45:50;6.45;;;4.47;;
61458;SDS011;47324;48.760;9.156;2022-07-29T12:48:38;7.07;;;4.35;;
61458;SDS011;47324;48.760;9.156;2022-07-29T12:51:05;6.75;;;4.40;;
61458;SDS011;47324;48.760;9.156;2022-07-29T12:53:33;8.38;;;4.40;;
61458;SDS011;47324;48.760;9.156;2022-07-29T12:56:00;7.72;;;4.65;;
61458;SDS011;47324;48.760;9.156;2022-07-29T12:58:29;7.07;;;4.72;;
61458;SDS011;47324;48.760;9.156;2022-07-29T13:01:11;8.05;;;4.45;;
61458;SDS011;47324;48.760;9.156;2022-07-29T13:03:46;7.72;;;5.00;;
61458;SDS011;47324;48.760;9.156;2022-07-29T13:11:45;9.43;;;5.70;;
61458;SDS011;47324;48.760;9.156;2022-07-29T13:14:13;8.68;;;4.80;;
61458;SDS011;47324;48.760;9.156;2022-07-29T13:19:34;7.55;;;5.03;;
61458;SDS011;47324;48.760;9.156;2022-07-29T13:22:07;7.32;;;4.28;;
61458;SDS011;47324;48.760;9.156;2022-07-29T13:24:44;8.48;;;4.47;;
61458;SDS011;47324;48.760;9.156;2022-07-29T13:27:14;9.15;;;4.88;;
61458;SDS011;47324;48.760;9.156;2022-07-29T13:29:41;10.50;;;4.85;;
61458;SDS011;47324;48.760;9.156;2022-07-29T13:32:07;9.18;;;5.22;;
61458;SDS011;47324;48.760;9.156;2022-07-29T13:34:33;6.53;;;4.10;;
61458;SDS011;47324;48.760;9.156;2022-07-29T13:36:59;8.00;;;4.43;;
61458;SDS011;47324;48.760;9.156;2022-07-29T13:39:25;5.65;;;4.13;;
61458;SDS011;47324;48.760;9.156;2022-07-29T13:41:51;7.15;;;4.85;;
61458;SDS011;47324;48.760;9.156;2022-07-29T13:44:17;9.93;;;4.43;;
61458;SDS011;47324;48.760;9.156;2022-07-29T13:46:43;5.45;;;4.15;;
61458;SDS011;47324;48.760;9.156;2022-07-29T13:49:09;7.07;;;4.78;;
61458;SDS011;47324;48.760;9.156;2022-07-29T13:51:36;9.40;;;5.50;;
61458;SDS011;47324;48.760;9.156;2022-07-29T13:54:03;7.30;;;4.43;;
61458;SDS011;47324;48.760;9.156;2022-07-29T13:56:29;6.65;;;4.70;;
61458;SDS011;47324;48.760;9.156;2022-07-29T13:58:55;6.70;;;4.82;;
61458;SDS011;47324;48.760;9.156;2022-07-29T14:01:21;6.40;;;4.85;;
61458;SDS011;47324;48.760;9.156;2022-07-29T14:03:47;9.27;;;4.95;;
61458;SDS011;47324;48.760;9.156;2022-07-29T14:06:13;9.27;;;4.93;;
61458;SDS011;47324;48.760;9.156;2022-07-29T14:08:39;7.20;;;5.07;;
61458;SDS011;47324;48.760;9.156;2022-07-29T14:11:08;7.28;;;4.88;;
61458;SDS011;47324;48.760;9.156;2022-07-29T14:13:34;6.63;;;4.32;;
61458;SDS011;47324;48.760;9.156;2022-07-29T14:16:00;7.88;;;5.20;;
61458;SDS011;47324;48.760;9.156;2022-07-29T14:18:26;7.97;;;5.53;;
61458;SDS011;47324;48.760;9.156;2022-07-29T14:20:52;9.68;;;5.43;;
61458;SDS011;47324;48.760;9.156;2022-07-29T14:23:18;7.82;;;5.30;;
61458;SDS011;47324;48.760;9.156;2022-07-29T14:25:44;8.15;;;4.72;;
61458;SDS011;47324;48.760;9.156;2022-07-29T14:28:10;9.07;;;5.60;;
61458;SDS011;47324;48.760;9.156;2022-07-29T14:30:37;6.82;;;4.93;;
61458;SDS011;47324;48.760;9.156;2022-07-29T14:33:03;6.93;;;4.93;;
61458;SDS011;47324;48.760;9.156;2022-07-29T14:35:29;8.27;;;5.55;;
61458;SDS011;47324;48.760;9.156;2022-07-29T14:37:55;7.80;;;5.70;;
61458;SDS011;47324;48.760;9.156;2022-07-29T14:40:21;6.95;;;5.40;;
61458;SDS011;47324;48.760;9.156;2022-07-29T14:42:47;8.27;;;5.60;;
61458;SDS011;47324;48.760;9.156;2022-07-29T14:45:12;9.57;;;5.57;;
61458;SDS011;47324;48.760;9.156;2022-07-29T14:47:39;10.23;;;5.82;;
61458;SDS011;47324;48.760;9.156;2022-07-29T14:50:06;9.52;;;5.80;;
61458;SDS011;47324;48.760;9.156;2022-07-29T14:52:33;6.25;;;4.93;;
61458;SDS011;47324;48.760;9.156;2022-07-29T14:54:59;9.30;;;6.15;;
61458;SDS011;47324;48.760;9.156;2022-07-29T14:57:25;9.20;;;6.18;;
61458;SDS011;47324;48.760;9.156;2022-07-29T14:59:51;8.75;;;6.28;;
61458;SDS011;47324;48.760;9.156;2022-07-29T15:02:17;9.95;;;6.18;;
61458;SDS011;47324;48.760;9.156;2022-07-29T15:04:43;7.60;;;5.55;;
61458;SDS011;47324;48.760;9.156;2022-07-29T15:07:11;7.43;;;5.10;;
61458;SDS011;47324;48.760;9.156;2022-07-29T15:09:37;6.53;;;5.05;;
61458;SDS011;47324;48.760;9.156;2022-07-29T15:12:03;8.05;;;5.70;;
61458;SDS011;47324;48.760;9.156;2022-07-29T15:14:30;8.25;;;5.35;;
61458;SDS011;47324;48.760;9.156;2022-07-29T15:16:57;9.15;;;5.80;;
61458;SDS011;47324;48.760;9.156;2022-07-29T15:19:23;9.95;;;6.28;;
61458;SDS011;47324;48.760;9.156;2022-07-29T15:21:49;8.18;;;6.10;;
61458;SDS011;47324;48.760;9.156;2022-07-29T15:24:18;6.40;;;4.43;;
61458;SDS011;47324;48.760;9.156;2022-07-29T15:26:45;6.55;;;5.20;;
61458;SDS011;47324;48.760;9.156;2022-07-29T15:29:11;8.95;;;6.28;;
61458;SDS011;47324;48.760;9.156;2022-07-29T15:31:38;7.50;;;5.43;;
61458;SDS011;47324;48.760;9.156;2022-07-29T15:34:04;7.07;;;5.60;;
61458;SDS011;47324;48.760;9.156;2022-07-29T15:36:30;8.70;;;6.00;;
61458;SDS011;47324;48.760;9.156;2022-07-29T15:38:56;7.40;;;5.00;;
61458;SDS011;47324;48.760;9.156;2022-07-29T15:41:23;9.35;;;5.75;;
61458;SDS011;47324;48.760;9.156;2022-07-29T15:43:49;8.05;;;5.40;;
61458;SDS011;47324;48.760;9.156;2022-07-29T15:46:17;8.82;;;6.50;;
61458;SDS011;47324;48.760;9.156;2022-07-29T15:49:03;9.73;;;5.88;;
61458;SDS011;47324;48.760;9.156;2022-07-29T15:51:30;6.38;;;5.32;;
61458;SDS011;47324;48.760;9.156;2022-07-29T15:53:56;8.77;;;5.25;;
61458;SDS011;47324;48.760;9.156;2022-07-29T15:56:22;8.90;;;6.50;;
61458;SDS011;47324;48.760;9.156;2022-07-29T15:58:49;10.32;;;6.53;;
61458;SDS011;47324;48.760;9.156;2022-07-29T16:01:15;13.55;;;7.03;;
61458;SDS011;47324;48.760;9.156;2022-07-29T16:03:41;8.23;;;5.85;;
61458;SDS011;47324;48.760;9.156;2022-07-29T16:06:07;10.30;;;7.00;;
61458;SDS011;47324;48.760;9.156;2022-07-29T16:08:33;9.00;;;6.60;;
61458;SDS011;47324;48.760;9.156;2022-07-29T16:10:58;8.05;;;6.60;;
61458;SDS011;47324;48.760;9.156;2022-07-29T16:13:25;10.10;;;6.88;;
61458;SDS011;47324;48.760;9.156;2022-07-29T16:15:51;9.18;;;6.93;;
61458;SDS011;47324;48.760;9.156;2022-07-29T16:18:17;9.05;;;7.57;;
61458;SDS011;47324;48.760;9.156;2022-07-29T16:20:43;7.88;;;6.43;;
61458;SDS011;47324;48.760;9.156;2022-07-29T16:23:09;9.05;;;6.45;;
61458;SDS011;47324;48.760;9.156;2022-07-29T16:25:39;6.90;;;6.22;;
61458;SDS011;47324;48.760;9.156;2022-07-29T16:28:05;6.75;;;5.13;;
61458;SDS011;47324;48.760;9.156;2022-07-29T16:30:33;9.57;;;5.70;;
61458;SDS011;47324;48.760;9.156;2022-07-29T16:32:59;7.53;;;5.90;;
61458;SDS011;47324;48.760;9.156;2022-07-29T16:35:27;7.65;;;5.68;;
61458;SDS011;47324;48.760;9.156;2022-07-29T16:37:55;7.25;;;5.60;;
61458;SDS011;47324;48.760;9.156;2022-07-29T16:40:21;6.90;;;6.10;;
61458;SDS011;47324;48.760;9.156;2022-07-29T16:42:47;7.85;;;5.80;;
61458;SDS011;47324;48.760;9.156;2022-07-29T16:45:16;7.75;;;6.00;;
61458;SDS011;47324;48.760;9.156;2022-07-29T16:47:42;7.88;;;6.97;;
61458;SDS011;47324;48.760;9.156;2022-07-29T16:50:09;7.90;;;6.15;;
61458;SDS011;47324;48.760;9.156;2022-07-29T16:52:34;7.65;;;6.53;;
61458;SDS011;47324;48.760;9.156;2022-07-29T16:55:02;7.85;;;6.18;;
61458;SDS011;47324;48.760;9.156;2022-07-29T16:57:28;10.05;;;6.43;;
61458;SDS011;47324;48.760;9.156;2022-07-29T16:59:54;9.57;;;6.60;;
61458;SDS011;47324;48.760;9.156;2022-07-29T17:02:20;10.15;;;6.53;;
61458;SDS011;47324;48.760;9.156;2022-07-29T17:04:46;11.10;;;6.15;;
61458;SDS011;47324;48.760;9.156;2022-07-29T17:07:12;9.45;;;7.03;;
61458;SDS011;47324;48.760;9.156;2022-07-29T17:09:38;7.60;;;6.85;;
61458;SDS011;47324;48.760;9.156;2022-07-29T17:12:05;12.45;;;6.97;;
61458;SDS011;47324;48.760;9.156;2022-07-29T17:14:31;10.68;;;7.43;;
61458;SDS011;47324;48.760;9.156;2022-07-29T17:16:58;9.63;;;6.93;;
61458;SDS011;47324;48.760;9.156;2022-07-29T17:19:25;8.35;;;6.68;;
61458;SDS011;47324;48.760;9.156;2022-07-29T17:21:52;7.68;;;6.63;;
61458;SDS011;47324;48.760;9.156;2022-07-29T17:24:18;7.75;;;6.90;;
61458;SDS011;47324;48.760;9.156;2022-07-29T17:26:44;7.63;;;6.65;;
61458;SDS011;47324;48.760;9.156;2022-07-29T17:29:10;8.68;;;6.63;;
61458;SDS011;47324;48.760;9.156;2022-07-29T17:31:36;7.65;;;6.75;;
61458;SDS011;47324;48.760;9.156;2022-07-29T17:34:03;7.13;;;6.43;;
61458;SDS011;47324;48.760;9.156;2022-07-29T17:36:29;9.77;;;7.18;;
61458;SDS011;47324;48.760;9.156;2022-07-29T17:38:56;7.72;;;6.75;;
61458;SDS011;47324;48.760;9.156;2022-07-29T17:41:24;8.30;;;6.68;;
61458;SDS011;47324;48.760;9.156;2022-07-29T17:43:51;10.13;;;7.15;;
61458;SDS011;47324;48.760;9.156;2022-07-29T17:46:17;8.77;;;7.40;;
61458;SDS011;47324;48.760;9.156;2022-07-29T17:48:44;9.68;;;6.95;;
61458;SDS011;47324;48.760;9.156;2022-07-29T17:51:10;9.27;;;6.80;;
61458;SDS011;47324;48.760;9.156;2022-07-29T17:53:36;7.35;;;5.80;;
61458;SDS011;47324;48.760;9.156;2022-07-29T17:56:03;12.15;;;7.18;;
61458;SDS011;47324;48.760;9.156;2022-07-29T17:58:30;10.07;;;6.75;;
61458;SDS011;47324;48.760;9.156;2022-07-29T18:00:56;7.72;;;6.45;;
61458;SDS011;47324;48.760;9.156;2022-07-29T18:03:22;8.65;;;6.88;;
61458;SDS011;47324;48.760;9.156;2022-07-29T18:05:48;8.20;;;6.65;;
61458;SDS011;47324;48.760;9.156;2022-07-29T18:08:14;7.72;;;6.72;;
61458;SDS011;47324;48.760;9.156;2022-07-29T18:10:42;10.70;;;6.68;;
61458;SDS011;47324;48.760;9.156;2022-07-29T18:13:08;10.82;;;6.97;;
61458;SDS011;47324;48.760;9.156;2022-07-29T18:15:37;8.77;;;7.50;;
61458;SDS011;47324;48.760;9.156;2022-07-29T18:18:07;8.35;;;7.20;;
61458;SDS011;47324;48.760;9.156;2022-07-29T18:20:33;10.48;;;7.00;;
61458;SDS011;47324;48.760;9.156;2022-07-29T18:22:59;8.35;;;7.03;;
61458;SDS011;47324;48.760;9.156;2022-07-29T18:25:26;9.73;;;6.95;;
61458;SDS011;47324;48.760;9.156;2022-07-29T18:27:52;7.95;;;6.95;;
61458;SDS011;47324;48.760;9.156;2022-07-29T18:30:18;11.82;;;7.32;;
61458;SDS011;47324;48.760;9.156;2022-07-29T18:32:45;8.35;;;6.75;;
61458;SDS011;47324;48.760;9.156;2022-07-29T18:35:11;9.32;;;7.28;;
61458;SDS011;47324;48.760;9.156;2022-07-29T18:37:37;7.72;;;6.70;;
61458;SDS011;47324;48.760;9.156;2022-07-29T18:40:03;13.70;;;7.13;;
61458;SDS011;47324;48.760;9.156;2022-07-29T18:42:29;10.27;;;7.10;;
61458;SDS011;47324;48.760;9.156;2022-07-29T18:44:56;8.30;;;7.40;;
61458;SDS011;47324;48.760;9.156;2022-07-29T18:47:22;9.63;;;7.28;;
61458;SDS011;47324;48.760;9.156;2022-07-29T18:49:48;12.95;;;7.30;;
61458;SDS011;47324;48.760;9.156;2022-07-29T18:52:14;7.85;;;7.05;;
61458;SDS011;47324;48.760;9.156;2022-07-29T18:54:40;7.30;;;6.22;;
61458;SDS011;47324;48.760;9.156;2022-07-29T18:57:06;8.20;;;6.38;;
61458;SDS011;47324;48.760;9.156;2022-07-29T18:59:32;9.38;;;7.22;;
61458;SDS011;47324;48.760;9.156;2022-07-29T19:02:00;10.13;;;7.25;;
61458;SDS011;47324;48.760;9.156;2022-07-29T19:04:26;8.35;;;6.43;;
61458;SDS011;47324;48.760;9.156;2022-07-29T19:06:52;7.38;;;5.93;;
61458;SDS011;47324;48.760;9.156;2022-07-29T19:09:18;6.97;;;6.03;;
61458;SDS011;47324;48.760;9.156;2022-07-29T19:11:44;7.35;;;5.97;;
61458;SDS011;47324;48.760;9.156;2022-07-29T19:14:10;6.88;;;5.85;;
61458;SDS011;47324;48.760;9.156;2022-07-29T19:16:36;7.85;;;5.82;;
61458;SDS011;47324;48.760;9.156;2022-07-29T19:19:02;7.85;;;6.00;;
61458;SDS011;47324;48.760;9.156;2022-07-29T19:21:29;11.18;;;6.00;;
61458;SDS011;47324;48.760;9.156;2022-07-29T19:23:55;11.38;;;5.68;;